MED weather

Public forecast

Using degrees Celsius for public forecast. Weather courtesy of forecast.io.

Current aviation weather report (METAR) for Prince Mohammad Bin Abdulaziz Airport

Retrieved 2020/08/13 07:00 UTC (41 minutes ago):

OEMA 130700Z 29007KT CAVOK 36/05 Q1009 NOSIG

Aviation forecast (TAF) for Prince Mohammad Bin Abdulaziz Airport

Retrieved 2020/08/13 06:12 UTC (1 hour ago):

TAF OEMA 130500Z 1306/1412 20008KT 7000 NSC BECMG 1309/1311 25014KT